Terminal Aerodrome Forecast
Issued by NWS Sioux Falls, SD

Home | Current Version | Previous Version | Text Only | Print | Product List | Glossary Off
Versions: 1 2 3 4 5 6 7 8 9 10 11 12 13 14 15 16

018
FTUS43 KFSD 280520
TAFFSD
TAF
KFSD 280520Z 2806/2906 01007KT P6SM SCT120
     FM281300 36008KT P6SM BKN022
     FM281600 36013KT P6SM SCT150
     FM290000 02006KT P6SM FEW250=

USA.gov is the U.S. government's official web portal to all federal, state and local government web resources and services.